createdAt,value
2022-08-20T00:01:02.005Z,97934.66
2022-08-20T00:03:36.753Z,97934.34
2022-08-20T00:06:07.930Z,97935.47
2022-08-20T00:08:36.493Z,97925.84
2022-08-20T00:11:05.883Z,97935.97
2022-08-20T00:13:36.639Z,97933.53
2022-08-20T00:16:04.927Z,97939.50
2022-08-20T00:18:36.968Z,97945.47
2022-08-20T00:21:06.499Z,97941.47
2022-08-20T00:23:34.314Z,97943.16
2022-08-20T00:26:02.142Z,97942.28
2022-08-20T00:28:29.963Z,97943.59
2022-08-20T00:30:57.829Z,97939.25
2022-08-20T00:33:26.174Z,97938.06
2022-08-20T00:35:57.444Z,97940.94
2022-08-20T00:38:27.587Z,97942.38
2022-08-20T00:40:57.471Z,97949.88
2022-08-20T00:43:29.072Z,97961.22
2022-08-20T00:45:57.498Z,97961.34
2022-08-20T00:48:26.570Z,97963.59
2022-08-20T00:50:58.856Z,97964.97
2022-08-20T00:53:27.781Z,97962.88
2022-08-20T00:55:55.792Z,97962.38
2022-08-20T00:58:23.864Z,97964.09
2022-08-20T01:00:51.829Z,97972.91
2022-08-20T01:03:20.417Z,97978.50
2022-08-20T01:05:50.726Z,97991.97
2022-08-20T01:08:21.733Z,97969.13
2022-08-20T01:10:53.856Z,97977.75
2022-08-20T01:13:23.750Z,97981.09
2022-08-20T01:15:53.755Z,97991.19
2022-08-20T01:18:25.857Z,97987.06
2022-08-20T01:20:56.231Z,97987.66
2022-08-20T01:23:34.783Z,97989.09
2022-08-20T01:26:09.102Z,97990.69
2022-08-20T01:28:40.952Z,97990.41
2022-08-20T01:31:10.729Z,97993.94
2022-08-20T01:33:38.768Z,98001.00
2022-08-20T01:36:07.633Z,98003.44
2022-08-20T01:38:36.078Z,98004.22
2022-08-20T01:41:17.158Z,97995.75
2022-08-20T01:43:47.422Z,98004.44
2022-08-20T01:46:19.327Z,98002.19
2022-08-20T01:48:47.753Z,97998.97
2022-08-20T01:51:17.760Z,97997.66
2022-08-20T01:53:48.790Z,98001.19
2022-08-20T01:56:20.881Z,98010.19
2022-08-20T01:58:55.820Z,98006.16
2022-08-20T02:01:34.638Z,98007.28
2022-08-20T02:04:15.262Z,98014.34
2022-08-20T02:06:57.197Z,98019.81
2022-08-20T02:09:26.730Z,98015.66
2022-08-20T02:11:56.555Z,98021.63
2022-08-20T02:14:30.982Z,98020.00
2022-08-20T02:16:59.836Z,98023.22
2022-08-20T02:19:31.045Z,98015.03
2022-08-20T02:22:02.403Z,98020.00
2022-08-20T02:24:32.167Z,98023.84
2022-08-20T02:27:01.553Z,98022.53
2022-08-20T02:29:29.347Z,98019.31
2022-08-20T02:32:24.226Z,98020.91
2022-08-20T02:34:45.101Z,98021.72
2022-08-20T02:37:14.976Z,98015.16
2022-08-20T02:39:44.049Z,98014.53
2022-08-20T02:42:13.367Z,98017.28
2022-08-20T02:44:41.243Z,98004.72
2022-08-20T02:47:10.879Z,98008.59
2022-08-20T02:49:40.405Z,98011.00
2022-08-20T02:52:08.325Z,98017.56
2022-08-20T02:54:36.633Z,98009.69
2022-08-20T02:57:04.819Z,98004.53
2022-08-20T02:59:34.025Z,98012.53
2022-08-20T03:02:02.224Z,98000.31
2022-08-20T03:04:30.376Z,98008.00
2022-08-20T03:06:58.316Z,98003.44
2022-08-20T03:09:26.366Z,98005.69
2022-08-20T03:11:54.442Z,98001.34
2022-08-20T03:14:22.257Z,98004.66
2022-08-20T03:16:53.314Z,97999.53
2022-08-20T03:19:21.207Z,97997.78
2022-08-20T03:21:49.013Z,98001.94
2022-08-20T03:24:16.903Z,97996.78
2022-08-20T03:26:44.802Z,97998.72
2022-08-20T03:29:13.560Z,98005.28
2022-08-20T03:31:41.582Z,98005.06
2022-08-20T03:34:10.857Z,98007.81
2022-08-20T03:36:38.704Z,98004.06
2022-08-20T03:39:11.640Z,98007.91
2022-08-20T03:41:39.696Z,98004.06
2022-08-20T03:44:07.876Z,98010.53
2022-08-20T03:46:36.069Z,98001.25
2022-08-20T03:49:04.505Z,98005.38
2022-08-20T03:51:51.453Z,98013.25
2022-08-20T03:54:22.041Z,98008.13
2022-08-20T03:56:52.600Z,98011.34
2022-08-20T03:59:20.421Z,98010.53
2022-08-20T04:01:48.313Z,98015.19
2022-08-20T04:04:16.489Z,98021.66
2022-08-20T04:06:47.520Z,98010.44
2022-08-20T04:09:15.627Z,98020.03
2022-08-20T04:11:43.660Z,98013.75
2022-08-20T04:14:17.416Z,98014.88
2022-08-20T04:16:49.050Z,98013.75
2022-08-20T04:19:17.208Z,98010.72
2022-08-20T04:21:48.897Z,98021.34
2022-08-20T04:24:27.549Z,98015.38
2022-08-20T04:27:00.429Z,98016.50
2022-08-20T04:29:32.234Z,98014.56
2022-08-20T04:32:03.355Z,98021.34
2022-08-20T04:34:34.238Z,98016.38
2022-08-20T04:37:03.572Z,98026.19
2022-08-20T04:39:31.456Z,98015.28
2022-08-20T04:41:58.669Z,98028.09
2022-08-20T04:44:26.637Z,98028.41
2022-08-20T04:46:54.414Z,98030.84
2022-08-20T04:49:28.090Z,98030.63
2022-08-20T04:51:56.705Z,98036.59
2022-08-20T04:54:25.904Z,98031.66
2022-08-20T04:56:53.683Z,98033.88
2022-08-20T04:59:21.513Z,98035.91
2022-08-20T05:01:49.366Z,98038.31
2022-08-20T05:04:17.173Z,98041.03
2022-08-20T05:06:46.830Z,98041.03
2022-08-20T05:09:14.629Z,98053.88
2022-08-20T05:11:43.852Z,98051.16
2022-08-20T05:14:12.265Z,98057.94
2022-08-20T05:16:41.281Z,98062.56
2022-08-20T05:19:11.372Z,98069.13
2022-08-20T05:21:39.410Z,98071.88
2022-08-20T05:24:07.825Z,98078.75
2022-08-20T05:26:35.722Z,98072.97
2022-08-20T05:29:06.806Z,98073.50
2022-08-20T05:31:35.212Z,98073.50
2022-08-20T05:34:03.462Z,98073.19
2022-08-20T05:36:31.323Z,98081.38
2022-08-20T05:38:59.204Z,98080.25
2022-08-20T05:41:30.069Z,98090.56
2022-08-20T05:44:01.906Z,98083.50
2022-08-20T05:46:32.311Z,98081.28
2022-08-20T05:49:01.641Z,98085.31
2022-08-20T05:51:30.468Z,98089.06
2022-08-20T05:53:59.447Z,98085.41
2022-08-20T05:56:30.556Z,98086.53
2022-08-20T05:59:00.195Z,98086.22
2022-08-20T06:01:28.109Z,98071.75
2022-08-20T06:04:14.989Z,98079.16
2022-08-20T06:06:45.834Z,98084.28
2022-08-20T06:09:15.114Z,98074.19
2022-08-20T06:11:42.942Z,98075.81
2022-08-20T06:14:10.804Z,98075.50
2022-08-20T06:16:38.664Z,98082.78
2022-08-20T06:19:11.270Z,98075.09
2022-08-20T06:21:39.837Z,98083.47
2022-08-20T06:24:08.639Z,98074.34
2022-08-20T06:26:37.244Z,98082.72
2022-08-20T06:29:06.647Z,98076.66
2022-08-20T06:31:35.067Z,98085.56
2022-08-20T06:34:02.991Z,98080.28
2022-08-20T06:36:32.185Z,98088.16
2022-08-20T06:38:59.991Z,98085.97
2022-08-20T06:41:35.796Z,98079.59
2022-08-20T06:44:04.559Z,98081.91
2022-08-20T06:46:33.114Z,98089.69
2022-08-20T06:49:00.993Z,98086.53
2022-08-20T06:51:31.313Z,98094.28
2022-08-20T06:54:00.467Z,98095.09
2022-08-20T06:56:28.276Z,98095.09
2022-08-20T06:58:56.132Z,98098.66
2022-08-20T07:01:24.348Z,98109.47
2022-08-20T07:03:56.206Z,98109.56
2022-08-20T07:06:28.445Z,98106.97
2022-08-20T07:08:56.462Z,98110.69
2022-08-20T07:11:28.424Z,98114.72
2022-08-20T07:13:58.161Z,98119.38
2022-08-20T07:16:26.272Z,98119.06
2022-08-20T07:18:54.067Z,98124.03
2022-08-20T07:21:26.329Z,98121.31
2022-08-20T07:23:54.128Z,98121.13
2022-08-20T07:26:22.018Z,98115.34
2022-08-20T07:28:51.310Z,98123.66
2022-08-20T07:31:36.697Z,98122.44
2022-08-20T07:34:04.717Z,98125.97
2022-08-20T07:36:41.701Z,98123.03
2022-08-20T07:39:20.495Z,98127.88
2022-08-20T07:42:03.058Z,98129.00
2022-08-20T07:44:39.429Z,98130.94
2022-08-20T07:47:07.743Z,98134.16
2022-08-20T07:49:44.448Z,98131.72
2022-08-20T07:52:13.268Z,98136.78
2022-08-20T07:54:48.703Z,98144.75
2022-08-20T07:57:17.456Z,98138.78
2022-08-20T07:59:54.153Z,98144.63
2022-08-20T08:02:28.163Z,98139.63
2022-08-20T08:04:56.344Z,98138.41
2022-08-20T08:07:26.366Z,98137.16
2022-08-20T08:09:54.699Z,98139.16
2022-08-20T08:12:23.051Z,98134.38
2022-08-20T08:14:58.211Z,98134.47
2022-08-20T08:17:26.065Z,98131.91
2022-08-20T08:19:53.878Z,98133.09
2022-08-20T08:22:21.774Z,98128.97
2022-08-20T08:24:57.289Z,98130.28
2022-08-20T08:27:25.674Z,98124.88
2022-08-20T08:29:54.855Z,98125.38
2022-08-20T08:32:22.671Z,98121.06
2022-08-20T08:34:50.494Z,98117.56
2022-08-20T08:37:18.355Z,98116.66
2022-08-20T08:39:46.208Z,98114.47
2022-08-20T08:42:22.265Z,98111.25
2022-08-20T08:44:50.850Z,98108.06
2022-08-20T08:47:25.151Z,98113.84
2022-08-20T08:49:53.022Z,98117.75
2022-08-20T08:52:23.035Z,98125.97
2022-08-20T08:54:56.930Z,98123.72
2022-08-20T08:57:25.227Z,98119.06
2022-08-20T09:00:04.248Z,98116.66
2022-08-20T09:02:36.383Z,98117.16
2022-08-20T09:05:14.705Z,98117.47
2022-08-20T09:07:51.098Z,98112.66
2022-08-20T09:10:23.209Z,98116.22
2022-08-20T09:12:52.305Z,98112.50
2022-08-20T09:15:21.257Z,98117.84
2022-08-20T09:17:50.574Z,98113.16
2022-08-20T09:20:19.346Z,98111.97
2022-08-20T09:22:47.176Z,98119.25
2022-08-20T09:25:16.076Z,98118.41
2022-08-20T09:27:43.869Z,98106.31
2022-08-20T09:30:15.248Z,98105.16
2022-08-20T09:32:43.527Z,98104.16
2022-08-20T09:35:13.384Z,98093.63
2022-08-20T09:37:41.243Z,98104.44
2022-08-20T09:40:10.615Z,98105.91
2022-08-20T09:42:41.636Z,98100.13
2022-08-20T09:45:11.395Z,98104.19
2022-08-20T09:47:43.869Z,98117.78
2022-08-20T09:50:28.951Z,98109.28
2022-08-20T09:52:58.519Z,98101.06
2022-08-20T09:55:31.503Z,98115.41
2022-08-20T09:57:59.945Z,98104.28
2022-08-20T10:00:27.989Z,98110.41
2022-08-20T10:02:56.122Z,98109.13
2022-08-20T10:05:24.017Z,98113.16
2022-08-20T10:07:55.814Z,98105.25
2022-08-20T10:10:23.861Z,98106.00
2022-08-20T10:12:54.721Z,98109.97
2022-08-20T10:15:22.999Z,98114.63
2022-08-20T10:17:50.815Z,98113.00
2022-08-20T10:20:19.727Z,98116.25
2022-08-20T10:22:47.728Z,98114.66
2022-08-20T10:25:17.862Z,98110.63
2022-08-20T10:27:45.716Z,98118.84
2022-08-20T10:30:14.591Z,98103.84
2022-08-20T10:32:42.800Z,98111.28
2022-08-20T10:35:10.693Z,98107.41
2022-08-20T10:37:40.461Z,98110.66
2022-08-20T10:40:09.628Z,98110.47
2022-08-20T10:42:42.484Z,98100.47
2022-08-20T10:45:11.405Z,98110.78
2022-08-20T10:47:39.293Z,98104.00
2022-08-20T10:50:10.009Z,98107.06
2022-08-20T10:52:38.011Z,98095.44
2022-08-20T10:55:06.656Z,98095.44
2022-08-20T10:57:35.181Z,98097.53
2022-08-20T11:00:06.851Z,98103.19
2022-08-20T11:02:34.688Z,98102.56
2022-08-20T11:05:02.558Z,98099.03
2022-08-20T11:07:55.019Z,98107.09
2022-08-20T11:10:20.209Z,98108.56
2022-08-20T11:12:53.520Z,98100.31
2022-08-20T11:15:22.707Z,98108.06
2022-08-20T11:17:50.613Z,98114.50
2022-08-20T11:20:20.411Z,98098.19
2022-08-20T11:22:48.669Z,98102.06
2022-08-20T11:25:16.638Z,98109.97
2022-08-20T11:27:49.381Z,98105.13
2022-08-20T11:30:23.621Z,98108.19
2022-08-20T11:32:51.504Z,98108.69
2022-08-20T11:38:11.870Z,98120.81
2022-08-20T11:40:39.912Z,98118.91
2022-08-20T11:43:16.281Z,98128.13
2022-08-20T11:45:48.089Z,98121.88
2022-08-20T11:48:20.315Z,98129.88
2022-08-20T11:50:49.074Z,98126.97
2022-08-20T11:53:17.219Z,98135.16
2022-08-20T11:55:50.900Z,98130.16
2022-08-20T11:58:19.426Z,98126.78
2022-08-20T12:00:56.143Z,98123.72
2022-08-20T12:03:24.278Z,98122.13
2022-08-20T12:05:58.063Z,98132.09
2022-08-20T12:08:27.115Z,98133.41
2022-08-20T12:11:02.921Z,98138.72
2022-08-20T12:13:48.815Z,98129.19
2022-08-20T12:16:25.890Z,98147.47
2022-08-20T12:19:01.433Z,98145.19
2022-08-20T12:21:32.399Z,98149.72
2022-08-20T12:24:09.318Z,98141.63
2022-08-20T12:26:37.278Z,98142.13
2022-08-20T12:29:10.918Z,98141.66
2022-08-20T12:31:40.303Z,98131.34
2022-08-20T12:34:13.938Z,98131.19
2022-08-20T12:36:44.424Z,98130.38
2022-08-20T12:39:18.751Z,98131.22
2022-08-20T12:41:46.801Z,98119.13
2022-08-20T12:44:21.800Z,98131.69
2022-08-20T12:46:51.192Z,98109.56
2022-08-20T12:49:28.214Z,98121.03
2022-08-20T12:51:56.172Z,98105.06
2022-08-20T12:54:31.609Z,98114.59
2022-08-20T12:56:59.623Z,98118.75
2022-08-20T12:59:35.378Z,98109.72
2022-08-20T13:02:14.029Z,98115.69
2022-08-20T13:04:43.791Z,98118.97
2022-08-20T13:07:17.808Z,98103.78
2022-08-20T13:09:45.847Z,98131.38
2022-08-20T13:12:21.918Z,98129.72
2022-08-20T13:14:49.943Z,98124.38
2022-08-20T13:17:38.891Z,98125.50
2022-08-20T13:20:10.136Z,98120.19
2022-08-20T13:22:45.543Z,98125.81
2022-08-20T13:25:14.230Z,98127.09
2022-08-20T13:27:50.250Z,98130.16
2022-08-20T13:30:20.607Z,98142.91
2022-08-20T13:32:57.605Z,98130.00
2022-08-20T13:35:36.089Z,98137.75
2022-08-20T13:38:04.051Z,98149.41
2022-08-20T13:54:03.839Z,98126.72
2022-08-20T13:56:39.099Z,98134.06
2022-08-20T13:59:16.590Z,98142.75
2022-08-20T14:01:44.598Z,98137.38
2022-08-20T14:04:12.580Z,98147.75
2022-08-20T14:06:50.842Z,98130.34
2022-08-20T14:09:28.939Z,98130.53
2022-08-20T14:11:56.868Z,98120.72
2022-08-20T14:14:32.474Z,98116.56
2022-08-20T14:17:00.982Z,98126.88
2022-08-20T14:19:38.679Z,98125.63
2022-08-20T14:22:21.556Z,98124.19
2022-08-20T14:24:56.410Z,98108.94
2022-08-20T14:27:31.532Z,98098.81
2022-08-20T14:30:00.191Z,98104.00
2022-08-20T14:32:28.678Z,98093.38
2022-08-20T14:35:05.627Z,98100.50
2022-08-20T14:37:57.750Z,98097.44
2022-08-20T14:40:27.810Z,98104.25
2022-08-20T14:43:02.421Z,98087.34
2022-08-20T14:45:31.520Z,98099.00
2022-08-20T14:48:07.045Z,98092.44
2022-08-20T14:50:46.434Z,98081.50
2022-08-20T14:53:40.848Z,98082.16
2022-08-20T14:56:10.044Z,98088.97
2022-08-20T14:58:53.160Z,98073.69
2022-08-20T15:02:45.754Z,98081.06
2022-08-20T15:05:39.721Z,98080.16
2022-08-20T15:08:11.018Z,98069.25
2022-08-20T15:11:17.386Z,98069.31
2022-08-20T15:16:53.580Z,98065.91
2022-08-20T15:19:23.947Z,98049.34
2022-08-20T15:22:00.813Z,98057.28
2022-08-20T15:24:28.845Z,98045.75
2022-08-20T15:30:00.270Z,98044.19
2022-08-20T15:32:35.927Z,98038.25
2022-08-20T15:35:07.315Z,98039.41
2022-08-20T15:37:44.078Z,98038.38
2022-08-20T15:40:25.733Z,98042.63
2022-08-20T15:43:03.232Z,98050.09
2022-08-20T15:45:33.325Z,98047.94
2022-08-20T15:48:09.642Z,98052.41
2022-08-20T15:50:58.055Z,98046.34
2022-08-20T15:53:30.433Z,98039.47
2022-08-20T15:56:05.068Z,98052.56
2022-08-20T15:58:38.164Z,98050.84
2022-08-20T16:01:24.592Z,98049.81
2022-08-20T16:04:15.315Z,98051.31
2022-08-20T16:06:44.632Z,98053.38
2022-08-20T16:09:33.079Z,98050.38
2022-08-20T16:12:06.532Z,98053.94
2022-08-20T16:14:38.641Z,98058.31
2022-08-20T16:17:10.917Z,98062.22
2022-08-20T16:19:47.746Z,98055.66
2022-08-20T16:22:16.021Z,98056.22
2022-08-20T16:24:43.974Z,98058.84
2022-08-20T16:27:15.915Z,98062.16
2022-08-20T16:29:53.982Z,98065.47
2022-08-20T16:32:35.633Z,98066.16
2022-08-20T16:35:10.224Z,98064.91
2022-08-20T16:37:43.790Z,98067.06
2022-08-20T16:40:26.125Z,98065.22
2022-08-20T16:42:56.159Z,98073.38
2022-08-20T16:45:28.070Z,98068.56
2022-08-20T16:48:00.679Z,98068.66
2022-08-20T16:50:32.660Z,98072.78
2022-08-20T16:53:00.644Z,98069.22
2022-08-20T16:55:28.481Z,98071.75
2022-08-20T16:57:56.389Z,98075.41
2022-08-20T17:00:29.395Z,98077.25
2022-08-20T17:03:00.802Z,98075.03
2022-08-20T17:05:32.148Z,98075.03
2022-08-20T17:08:03.524Z,98077.19
2022-08-20T17:10:34.171Z,98069.78
2022-08-20T17:13:06.325Z,98083.50
2022-08-20T17:15:36.242Z,98075.00
2022-08-20T17:18:23.317Z,98074.13
2022-08-20T17:20:51.612Z,98081.63
2022-08-20T17:23:21.272Z,98084.13
2022-08-20T17:25:57.587Z,98075.00
2022-08-20T17:28:25.955Z,98079.72
2022-08-20T17:30:55.826Z,98071.22
2022-08-20T17:33:29.372Z,98072.00
2022-08-20T17:35:59.267Z,98072.19
2022-08-20T17:38:35.244Z,98081.91
2022-08-20T17:41:12.783Z,98078.88
2022-08-20T17:43:45.249Z,98087.47
2022-08-20T17:46:17.303Z,98086.84
2022-08-20T17:48:48.266Z,98081.06
2022-08-20T17:51:18.020Z,98081.25
2022-08-20T17:53:48.199Z,98082.78
2022-08-20T17:56:22.615Z,98079.75
2022-08-20T17:58:54.392Z,98073.16
2022-08-20T18:01:23.769Z,98072.81
2022-08-20T18:03:54.154Z,98083.50
2022-08-20T18:06:30.834Z,98083.84
2022-08-20T18:09:03.741Z,98082.75
2022-08-20T18:11:37.085Z,98087.91
2022-08-20T18:14:27.617Z,98085.84
2022-08-20T18:17:16.273Z,98088.31
2022-08-20T18:20:14.849Z,98089.91
2022-08-20T18:22:50.777Z,98093.47
2022-08-20T18:25:27.401Z,98095.25
2022-08-20T18:27:58.365Z,98092.97
2022-08-20T18:30:26.895Z,98089.09
2022-08-20T18:33:04.712Z,98093.28
2022-08-20T18:35:37.977Z,98101.16
2022-08-20T18:38:14.460Z,98100.53
2022-08-20T18:40:42.322Z,98095.34
2022-08-20T18:43:15.824Z,98104.06
2022-08-20T18:45:43.827Z,98111.47
2022-08-20T18:48:21.705Z,98112.41
2022-08-20T18:50:55.038Z,98112.25
2022-08-20T18:53:30.400Z,98112.06
2022-08-20T18:56:03.310Z,98110.91
2022-08-20T18:58:34.314Z,98110.72
2022-08-20T19:01:05.334Z,98118.25
2022-08-20T19:03:39.744Z,98109.06
2022-08-20T19:06:20.175Z,98109.38
2022-08-20T19:08:51.220Z,98109.53
2022-08-20T19:11:35.219Z,98118.19
2022-08-20T19:14:24.453Z,98121.84
2022-08-20T19:16:56.791Z,98116.03
2022-08-20T19:19:29.576Z,98123.25
2022-08-20T19:22:02.223Z,98119.84
2022-08-20T19:24:31.575Z,98125.94
2022-08-20T19:27:01.794Z,98125.94
2022-08-20T19:29:32.091Z,98131.72
2022-08-20T19:32:00.732Z,98128.81
2022-08-20T19:34:29.215Z,98135.53
2022-08-20T19:36:59.537Z,98130.97
2022-08-20T19:39:37.683Z,98134.66
2022-08-20T19:42:15.117Z,98140.44
2022-08-20T19:44:46.572Z,98138.81
2022-08-20T19:47:20.165Z,98138.09
2022-08-20T19:50:01.045Z,98140.97
2022-08-20T19:52:38.872Z,98140.28
2022-08-20T19:55:19.550Z,98142.19
2022-08-20T19:57:52.512Z,98141.41
2022-08-20T20:00:20.461Z,98147.34
2022-08-20T20:02:48.332Z,98143.81
2022-08-20T20:05:17.901Z,98139.59
2022-08-20T20:07:48.414Z,98133.94
2022-08-20T20:10:31.778Z,98136.34
2022-08-20T20:13:07.852Z,98137.91
2022-08-20T20:15:35.720Z,98134.34
2022-08-20T20:18:03.632Z,98136.78
2022-08-20T20:20:33.694Z,98147.53
2022-08-20T20:23:06.904Z,98150.53
2022-08-20T20:25:42.757Z,98149.81
2022-08-20T20:28:22.264Z,98144.16
2022-08-20T20:30:50.496Z,98144.59
2022-08-20T20:33:20.902Z,98151.47
2022-08-20T20:36:03.050Z,98142.47
2022-08-20T20:38:31.003Z,98138.63
2022-08-20T20:41:02.455Z,98147.31
2022-08-20T20:43:32.510Z,98147.81
2022-08-20T20:46:04.057Z,98148.13
2022-08-20T20:48:42.055Z,98144.28
2022-08-20T20:51:17.831Z,98141.34
2022-08-20T20:53:54.398Z,98141.84
2022-08-20T20:56:30.012Z,98143.28
2022-08-20T20:59:00.303Z,98146.31
2022-08-20T21:01:48.321Z,98138.44
2022-08-20T21:04:17.850Z,98146.81
2022-08-20T21:06:45.848Z,98147.53
2022-08-20T21:09:13.788Z,98153.31
2022-08-20T21:11:42.984Z,98149.56
2022-08-20T21:14:10.810Z,98141.88
2022-08-20T21:16:38.613Z,98151.00
2022-08-20T21:19:07.861Z,98138.25
2022-08-20T21:21:35.868Z,98147.88
2022-08-20T21:24:04.186Z,98146.56
2022-08-20T21:26:32.046Z,98156.66
2022-08-20T21:29:01.235Z,98146.31
2022-08-20T21:31:32.848Z,98152.91
2022-08-20T21:34:00.742Z,98144.81
2022-08-20T21:36:28.638Z,98153.22
2022-08-20T21:38:56.463Z,98150.09
2022-08-20T21:41:29.534Z,98150.50
2022-08-20T21:43:58.649Z,98148.19
2022-08-20T21:46:28.772Z,98158.59
2022-08-20T21:48:56.746Z,98152.81
2022-08-20T21:51:24.663Z,98145.75
2022-08-20T21:53:52.453Z,98143.53
2022-08-20T21:56:20.292Z,98151.69
2022-08-20T21:58:51.444Z,98147.84
2022-08-20T22:01:23.178Z,98149.25
2022-08-20T22:03:52.407Z,98154.28
2022-08-20T22:06:20.672Z,98150.84
2022-08-20T22:08:48.488Z,98147.91
2022-08-20T22:11:16.340Z,98151.22
2022-08-20T22:13:44.668Z,98151.22
2022-08-20T22:16:14.198Z,98157.28
2022-08-20T22:18:42.380Z,98156.56
2022-08-20T22:21:15.893Z,98154.03
2022-08-20T22:23:43.758Z,98155.25
2022-08-20T22:26:11.559Z,98161.81
2022-08-20T22:28:39.696Z,98156.72
2022-08-20T22:31:07.984Z,98166.69
2022-08-20T22:33:35.911Z,98166.19
2022-08-20T22:36:04.522Z,98163.22
2022-08-20T22:38:34.184Z,98162.72
2022-08-20T22:41:05.155Z,98157.06
2022-08-20T22:43:35.393Z,98170.47
2022-08-20T22:46:15.859Z,98166.72
2022-08-20T22:48:44.161Z,98165.69
2022-08-20T22:51:23.089Z,98160.53
2022-08-20T22:53:52.292Z,98164.06
2022-08-20T22:56:21.987Z,98165.69
2022-08-20T22:58:50.989Z,98162.66
2022-08-20T23:01:19.188Z,98172.59
2022-08-20T23:03:47.324Z,98166.63
2022-08-20T23:06:15.252Z,98167.53
2022-08-20T23:08:44.861Z,98173.03
2022-08-20T23:11:14.074Z,98172.31
2022-08-20T23:13:41.922Z,98168.03
2022-08-20T23:16:09.741Z,98170.56
2022-08-20T23:18:37.571Z,98165.13
2022-08-20T23:21:05.773Z,98170.84
2022-08-20T23:23:33.621Z,98168.66
2022-08-20T23:26:01.835Z,98166.50
2022-08-20T23:28:31.120Z,98159.75
2022-08-20T23:30:58.905Z,98170.34
2022-08-20T23:33:26.737Z,98162.47
2022-08-20T23:35:54.607Z,98176.66
2022-08-20T23:38:22.423Z,98158.47
2022-08-20T23:40:50.213Z,98164.78
2022-08-20T23:43:18.749Z,98167.31
2022-08-20T23:45:47.974Z,98153.19
2022-08-20T23:48:15.778Z,98156.50
2022-08-20T23:50:43.760Z,98157.31
2022-08-20T23:53:11.759Z,98153.03
2022-08-20T23:55:39.535Z,98159.56
2022-08-20T23:58:08.253Z,98149.03
